Time;durP1;ratioP1;P1;durP2;ratioP2;P2;SDS_P1;SDS_P2;PMS_P1;PMS_P2;Temp;Humidity;BMP_temperature;BMP_pressure;BME280_temperature;BME280_humidity;BME280_pressure;Samples;Min_cycle;Max_cycle;Signal;HPM_P1;HPM_P2
2021/08/25 00:02:19;;;;;;;9.40;8.10;;;;;;;12.84;71.16;101231.14;116299;1189;21902;-75
2021/08/25 00:04:48;;;;;;;8.90;6.80;;;;;;;12.87;70.94;101231.96;116313;1193;22199;-75
2021/08/25 00:07:17;;;;;;;9.20;6.70;;;;;;;12.89;70.86;101232.93;116372;1193;21908;-75
2021/08/25 00:09:46;;;;;;;10.40;6.30;;;;;;;12.91;70.98;101227.94;116412;1192;22865;-75
2021/08/25 00:12:15;;;;;;;9.30;7.50;;;;;;;12.93;70.89;101225.98;116433;1192;21900;-75
2021/08/25 00:14:44;;;;;;;9.60;7.10;;;;;;;12.94;70.81;101222.37;116413;1192;21898;-75
2021/08/25 00:17:13;;;;;;;10.20;6.30;;;;;;;12.94;70.75;101218.95;116315;1193;21893;-75
2021/08/25 00:19:42;;;;;;;10.40;7.00;;;;;;;12.95;70.83;101214.68;116440;1192;21942;-75
2021/08/25 00:22:11;;;;;;;10.90;6.80;;;;;;;12.94;70.59;101215.74;116640;1190;21888;-76
2021/08/25 00:24:42;;;;;;;12.60;6.80;;;;;;;12.92;70.53;101213.98;116604;1189;22918;-76
2021/08/25 00:27:11;;;;;;;12.20;7.60;;;;;;;12.90;70.41;101212.63;116560;1191;21887;-75
2021/08/25 00:29:40;;;;;;;9.90;7.20;;;;;;;12.86;70.33;101211.48;116653;1190;23301;-75
2021/08/25 00:32:09;;;;;;;10.40;7.60;;;;;;;12.83;70.27;101214.45;116575;1190;22165;-75
2021/08/25 00:34:38;;;;;;;11.20;6.70;;;;;;;12.79;70.45;101213.62;116574;1189;23450;-75
2021/08/25 00:37:07;;;;;;;9.40;6.80;;;;;;;12.76;70.40;101215.89;116558;1189;21891;-75
2021/08/25 00:39:36;;;;;;;8.40;6.70;;;;;;;12.71;70.30;101215.18;116636;1186;21898;-75
2021/08/25 00:42:05;;;;;;;10.60;6.70;;;;;;;12.67;70.42;101213.34;116623;1190;22912;-75
2021/08/25 00:44:34;;;;;;;8.60;6.90;;;;;;;12.63;70.46;101211.63;116619;1190;22929;-74
2021/08/25 00:47:03;;;;;;;10.40;7.30;;;;;;;12.59;70.44;101208.73;116653;1187;21878;-75
2021/08/25 00:49:32;;;;;;;10.20;8.00;;;;;;;12.53;70.35;101206.86;116670;1187;23548;-75
2021/08/25 00:52:04;;;;;;;9.90;7.50;;;;;;;12.49;70.55;101203.08;116524;1190;21884;-75
2021/08/25 00:54:33;;;;;;;12.20;7.90;;;;;;;12.44;70.62;101200.34;116690;1193;23476;-75
2021/08/25 00:57:04;;;;;;;10.30;7.60;;;;;;;12.40;70.81;101198.30;116613;1190;21897;-75
2021/08/25 00:59:35;;;;;;;10.20;7.70;;;;;;;12.36;70.94;101196.05;116619;1190;21894;-74
2021/08/25 01:02:25;;;;;;;12.20;8.90;;;;;;;12.33;71.05;101196.08;116633;1190;21892;-74
2021/08/25 01:04:59;;;;;;;11.90;7.30;;;;;;;12.28;71.20;101196.02;116646;1189;22641;-75
2021/08/25 01:07:33;;;;;;;14.70;8.70;;;;;;;12.24;71.24;101193.95;116681;1190;22032;-75
2021/08/25 01:10:23;;;;;;;13.40;8.80;;;;;;;12.19;71.19;101193.25;116677;1190;21922;-76
2021/08/25 01:13:03;;;;;;;16.50;10.30;;;;;;;12.13;71.52;101189.11;116714;1186;21905;-75
2021/08/25 01:15:42;;;;;;;13.20;8.80;;;;;;;12.08;71.62;101188.70;116392;1190;22618;-75
2021/08/25 01:18:17;;;;;;;14.80;9.20;;;;;;;12.04;71.65;101186.50;116604;1190;23224;-75
2021/08/25 01:20:50;;;;;;;9.30;8.20;;;;;;;11.99;71.67;101188.55;116578;1190;22083;-75
2021/08/25 01:23:21;;;;;;;16.30;9.60;;;;;;;11.94;71.94;101182.49;116591;1190;21898;-75
2021/08/25 01:25:55;;;;;;;22.70;10.80;;;;;;;11.91;72.15;101185.13;116461;1190;21885;-76
2021/08/25 01:28:28;;;;;;;15.60;9.70;;;;;;;11.88;72.26;101185.27;116596;1190;21892;-76
2021/08/25 01:31:05;;;;;;;13.70;9.40;;;;;;;11.84;72.28;101185.16;116505;1191;21888;-77
2021/08/25 01:33:33;;;;;;;13.70;9.60;;;;;;;11.79;72.38;101182.59;116605;1190;21889;-75
2021/08/25 01:36:03;;;;;;;14.80;9.50;;;;;;;11.75;72.43;101178.92;116436;1191;21914;-76
2021/08/25 01:38:50;;;;;;;16.70;10.00;;;;;;;11.72;72.55;101183.17;116419;1188;21961;-76
2021/08/25 01:41:24;;;;;;;13.60;8.70;;;;;;;11.66;72.59;101187.40;116502;1192;22964;-75
2021/08/25 01:43:56;;;;;;;11.00;8.90;;;;;;;11.62;72.76;101184.13;116421;1192;21918;-76
2021/08/25 01:46:35;;;;;;;;;;;;;;;11.58;72.74;101181.71;116311;1194;21919;-75
2021/08/25 01:49:07;;;;;;;16.30;9.90;;;;;;;11.46;72.91;101179.77;116291;1196;23174;-76
2021/08/25 01:51:38;;;;;;;13.30;9.20;;;;;;;11.41;73.18;101175.17;116198;1196;22854;-75
2021/08/25 01:54:09;;;;;;;11.00;9.30;;;;;;;11.40;73.28;101172.48;116247;1194;21901;-75
2021/08/25 01:56:42;;;;;;;12.60;9.90;;;;;;;11.38;73.44;101172.23;116446;1192;22743;-75
2021/08/25 01:59:11;;;;;;;13.30;9.40;;;;;;;11.36;73.45;101167.19;116579;1194;22912;-76
2021/08/25 02:01:40;;;;;;;13.10;8.90;;;;;;;11.33;73.50;101165.58;116401;1187;21885;-76
2021/08/25 02:04:10;;;;;;;13.80;10.30;;;;;;;11.28;73.42;101160.71;116491;1190;21899;-75
2021/08/25 02:06:38;;;;;;;14.50;9.60;;;;;;;11.24;73.50;101160.41;116661;1190;21891;-76
2021/08/25 02:09:07;;;;;;;14.40;9.10;;;;;;;11.21;73.66;101159.66;116615;1190;22628;-75
2021/08/25 02:11:36;;;;;;;15.50;8.70;;;;;;;11.17;73.53;101156.39;116623;1189;21893;-76
2021/08/25 02:14:06;;;;;;;16.00;8.70;;;;;;;11.14;73.67;101152.65;116632;1190;21925;-76
2021/08/25 02:16:35;;;;;;;14.00;10.00;;;;;;;11.10;73.78;101150.70;116662;1190;23015;-76
2021/08/25 02:19:06;;;;;;;15.60;11.40;;;;;;;11.08;73.84;101153.20;116655;1190;21936;-75
2021/08/25 02:21:35;;;;;;;34.40;11.30;;;;;;;11.06;74.05;101157.11;116577;1190;22117;-76
2021/08/25 02:24:04;;;;;;;17.80;11.90;;;;;;;11.03;74.02;101152.48;116482;1191;22895;-76
2021/08/25 02:26:33;;;;;;;17.00;12.60;;;;;;;10.99;73.93;101148.45;116638;1191;22912;-75
2021/08/25 02:29:02;;;;;;;15.90;12.00;;;;;;;10.96;74.23;101142.74;116620;1190;21886;-75
2021/08/25 02:31:31;;;;;;;22.30;13.00;;;;;;;10.95;74.31;101142.52;116510;1190;21891;-76
2021/08/25 02:34:00;;;;;;;15.10;11.70;;;;;;;10.93;74.30;101142.05;116761;1190;22579;-76
2021/08/25 02:36:29;;;;;;;17.10;12.20;;;;;;;10.91;74.41;101139.22;116777;1190;21896;-76
2021/08/25 02:38:58;;;;;;;17.40;13.90;;;;;;;10.90;74.60;101140.23;116608;1193;21896;-76
2021/08/25 02:41:27;;;;;;;18.80;15.20;;;;;;;10.88;74.49;101140.89;116721;1189;21924;-76
2021/08/25 02:43:56;;;;;;;27.30;16.00;;;;;;;10.87;74.55;101140.45;116564;1187;21891;-76
2021/08/25 02:46:25;;;;;;;20.00;13.40;;;;;;;10.86;74.60;101139.17;116591;1190;22913;-76
2021/08/25 02:48:56;;;;;;;17.00;12.20;;;;;;;10.81;74.41;101138.20;116676;1190;21885;-75
2021/08/25 02:51:25;;;;;;;13.20;10.30;;;;;;;10.77;74.38;101138.95;116657;1190;23554;-76
2021/08/25 02:53:54;;;;;;;16.00;9.40;;;;;;;10.74;74.32;101134.33;116487;1189;21883;-75
2021/08/25 02:56:22;;;;;;;18.60;11.50;;;;;;;10.72;74.45;101130.70;116462;1190;23491;-76
2021/08/25 02:58:51;;;;;;;18.70;12.60;;;;;;;10.69;74.63;101127.91;116248;1195;21938;-76
2021/08/25 03:01:20;;;;;;;24.00;13.70;;;;;;;10.68;74.68;101120.36;116350;1193;21906;-76
2021/08/25 03:03:49;;;;;;;22.90;13.50;;;;;;;10.66;74.81;101119.64;116380;1193;21889;-76
2021/08/25 03:06:18;;;;;;;24.80;13.80;;;;;;;10.66;74.90;101116.80;116311;1193;21907;-76
2021/08/25 03:08:47;;;;;;;21.30;12.80;;;;;;;10.64;74.88;101111.70;116168;1195;21909;-76
2021/08/25 03:11:16;;;;;;;18.20;11.90;;;;;;;10.63;74.86;101105.79;116193;1195;23682;-76
2021/08/25 03:13:45;;;;;;;32.80;16.00;;;;;;;10.62;74.85;101106.40;116111;1195;21932;-75
2021/08/25 03:16:14;;;;;;;60.80;31.40;;;;;;;10.61;74.80;101101.92;116140;1191;23549;-76
2021/08/25 03:18:44;;;;;;;71.50;36.40;;;;;;;10.60;74.83;101097.09;116014;1198;22428;-76
2021/08/25 03:21:13;;;;;;;69.80;37.40;;;;;;;10.59;74.86;101095.09;116035;1196;21900;-75
2021/08/25 03:23:43;;;;;;;68.70;36.60;;;;;;;10.56;74.74;101097.48;115927;1198;23597;-75
2021/08/25 03:26:12;;;;;;;80.70;42.90;;;;;;;10.53;74.79;101094.61;116038;1195;21908;-75
2021/08/25 03:28:41;;;;;;;73.20;44.30;;;;;;;10.51;74.99;101098.49;116143;1195;22963;-76
2021/08/25 03:31:12;;;;;;;59.90;36.00;;;;;;;10.49;74.89;101097.12;115933;1196;21888;-76
2021/08/25 03:33:41;;;;;;;;;;;;;;;10.46;74.95;101091.96;116250;1196;23443;-76
2021/08/25 03:36:10;;;;;;;37.60;23.40;;;;;;;10.36;75.00;101091.52;116310;1195;23452;-76
2021/08/25 03:38:40;;;;;;;27.70;18.80;;;;;;;10.34;75.26;101095.26;116450;1192;22514;-75
2021/08/25 03:41:09;;;;;;;22.90;14.40;;;;;;;10.34;75.28;101092.22;116445;1193;21887;-76
2021/08/25 03:43:38;;;;;;;20.30;12.90;;;;;;;10.34;75.22;101090.27;116466;1192;23632;-75
2021/08/25 03:46:07;;;;;;;21.50;12.80;;;;;;;10.34;75.17;101087.01;116418;1192;21910;-75
2021/08/25 03:48:36;;;;;;;14.70;11.80;;;;;;;10.35;75.29;101087.61;116494;1192;21896;-75
2021/08/25 03:51:06;;;;;;;20.50;11.20;;;;;;;10.34;75.35;101080.95;116621;1186;21885;-75
2021/08/25 03:53:35;;;;;;;15.40;10.40;;;;;;;10.35;75.39;101082.61;116503;1190;21883;-75
2021/08/25 03:56:04;;;;;;;17.60;10.80;;;;;;;10.36;75.33;101082.18;116747;1187;21880;-74
2021/08/25 03:58:33;;;;;;;12.90;10.30;;;;;;;10.36;75.21;101084.85;116517;1192;23605;-75
2021/08/25 04:01:02;;;;;;;11.80;9.50;;;;;;;10.35;75.36;101085.30;116817;1185;23566;-75
2021/08/25 04:03:31;;;;;;;15.50;10.40;;;;;;;10.36;75.38;101083.44;116765;1189;21889;-75
2021/08/25 04:06:02;;;;;;;13.00;10.70;;;;;;;10.36;75.27;101081.46;116702;1189;21878;-75
2021/08/25 04:08:31;;;;;;;13.80;11.40;;;;;;;10.34;75.08;101081.80;116709;1190;22610;-75
2021/08/25 04:11:01;;;;;;;14.40;11.40;;;;;;;10.33;75.26;101080.52;116784;1190;21898;-75
2021/08/25 04:13:30;;;;;;;15.60;10.40;;;;;;;10.33;75.42;101076.63;116870;1189;24200;-75
2021/08/25 04:15:59;;;;;;;17.40;13.40;;;;;;;10.34;75.32;101081.86;116724;1190;21906;-75
2021/08/25 04:18:30;;;;;;;14.20;10.30;;;;;;;10.34;75.38;101083.25;116452;1191;23629;-75
2021/08/25 04:20:59;;;;;;;14.40;10.70;;;;;;;10.36;75.46;101082.24;116581;1189;21889;-75
2021/08/25 04:23:28;;;;;;;15.20;10.90;;;;;;;10.35;75.29;101078.74;116590;1190;21938;-75
2021/08/25 04:25:56;;;;;;;15.80;10.20;;;;;;;10.36;75.33;101076.04;116526;1192;22736;-77
2021/08/25 04:28:25;;;;;;;15.40;10.90;;;;;;;10.38;75.36;101069.71;116486;1190;21870;-77
2021/08/25 04:30:55;;;;;;;19.70;13.60;;;;;;;10.38;75.49;101071.77;116410;1193;24144;-77
2021/08/25 04:33:24;;;;;;;15.00;12.00;;;;;;;10.39;75.45;101069.23;116351;1190;22610;-76
2021/08/25 04:35:53;;;;;;;16.30;12.40;;;;;;;10.41;75.48;101074.20;116386;1193;23552;-76
2021/08/25 04:38:21;;;;;;;14.20;10.30;;;;;;;10.43;75.52;101076.21;116089;1196;21893;-76
2021/08/25 04:40:51;;;;;;;24.30;11.40;;;;;;;10.45;75.56;101073.75;116405;1191;22918;-76
2021/08/25 04:43:19;;;;;;;13.00;9.40;;;;;;;10.47;75.70;101075.64;116372;1192;21856;-76
2021/08/25 04:45:48;;;;;;;12.40;10.00;;;;;;;10.49;75.55;101079.55;116376;1192;23478;-76
2021/08/25 04:48:18;;;;;;;13.00;9.50;;;;;;;10.51;75.66;101079.50;116438;1193;23548;-76
2021/08/25 04:50:47;;;;;;;13.60;9.60;;;;;;;10.54;75.52;101080.62;116138;1196;23479;-77
2021/08/25 04:53:17;;;;;;;18.80;10.90;;;;;;;10.56;75.64;101078.80;116418;1189;21885;-77
2021/08/25 04:55:46;;;;;;;17.20;11.50;;;;;;;10.59;75.82;101074.47;116509;1189;21868;-77
2021/08/25 04:58:15;;;;;;;17.90;11.90;;;;;;;10.63;75.77;101069.38;116575;1192;23456;-76
2021/08/25 05:00:46;;;;;;;15.90;11.60;;;;;;;10.68;75.96;101068.14;116269;1193;21924;-75
2021/08/25 05:03:16;;;;;;;;;;;;;;;10.75;75.97;101067.81;116358;1192;22897;-76
2021/08/25 05:05:45;;;;;;;15.70;10.90;;;;;;;10.75;76.07;101067.27;116187;1195;21912;-76
2021/08/25 05:08:14;;;;;;;22.20;13.00;;;;;;;10.80;76.14;101068.35;116362;1192;21925;-76
2021/08/25 05:10:52;;;;;;;20.00;13.90;;;;;;;10.87;75.92;101067.65;116775;1192;22910;-77
2021/08/25 05:13:31;;;;;;;21.90;15.50;;;;;;;10.93;75.89;101061.09;116565;1190;22853;-77
2021/08/25 05:16:00;;;;;;;22.50;16.10;;;;;;;10.99;75.87;101062.23;116500;1191;23407;-78
2021/08/25 05:18:29;;;;;;;23.50;16.10;;;;;;;11.06;75.78;101063.85;116537;1191;23980;-77
2021/08/25 05:20:58;;;;;;;25.70;18.00;;;;;;;11.13;75.88;101061.70;116594;1190;22336;-78
2021/08/25 05:23:27;;;;;;;23.90;15.80;;;;;;;11.23;75.87;101063.20;116614;1187;23566;-77
2021/08/25 05:25:56;;;;;;;24.10;16.60;;;;;;;11.33;75.74;101064.36;116540;1192;22854;-76
2021/08/25 05:28:26;;;;;;;25.90;17.50;;;;;;;11.42;75.63;101061.79;116143;1192;22699;-78
2021/08/25 05:30:54;;;;;;;21.80;13.70;;;;;;;11.51;75.52;101060.74;116314;1193;21902;-77
2021/08/25 05:33:24;;;;;;;19.40;14.40;;;;;;;11.62;75.55;101062.98;116331;1194;24000;-78
2021/08/25 05:35:53;;;;;;;19.20;15.00;;;;;;;11.75;75.63;101062.27;116391;1192;21897;-77
2021/08/25 05:38:22;;;;;;;19.80;15.70;;;;;;;11.89;75.62;101063.02;116336;1193;21908;-77
2021/08/25 05:40:52;;;;;;;18.40;14.00;;;;;;;12.03;75.24;101064.92;116344;1193;21892;-78
2021/08/25 05:43:20;;;;;;;16.80;13.60;;;;;;;12.17;75.02;101064.64;116187;1190;23531;-77
2021/08/25 05:45:50;;;;;;;17.00;13.10;;;;;;;12.32;74.57;101064.16;116491;1189;21898;-78
2021/08/25 05:48:19;;;;;;;16.70;12.80;;;;;;;12.44;74.11;101058.50;116648;1189;21931;-77
2021/08/25 05:50:49;;;;;;;21.30;12.50;;;;;;;12.59;74.14;101057.59;116614;1192;22729;-78
2021/08/25 05:53:18;;;;;;;12.30;10.10;;;;;;;12.80;74.43;101055.18;116592;1190;23559;-77
2021/08/25 05:55:47;;;;;;;15.60;10.50;;;;;;;13.07;74.45;101055.27;116712;1191;21896;-77
2021/08/25 05:58:16;;;;;;;15.60;10.10;;;;;;;13.39;74.38;101051.95;116419;1187;21894;-77
2021/08/25 06:00:45;;;;;;;18.90;10.40;;;;;;;13.74;74.07;101049.19;116435;1193;21921;-77
2021/08/25 06:03:14;;;;;;;14.10;10.00;;;;;;;14.08;73.25;101047.11;116434;1192;23702;-77
2021/08/25 06:05:44;;;;;;;15.00;11.90;;;;;;;14.49;73.04;101045.40;116503;1191;21901;-77
2021/08/25 06:08:14;;;;;;;11.80;9.20;;;;;;;14.94;72.01;101042.83;116568;1192;23003;-77
2021/08/25 06:10:43;;;;;;;12.60;8.00;;;;;;;15.32;70.19;101045.66;116400;1193;23550;-77
2021/08/25 06:13:12;;;;;;;13.10;8.60;;;;;;;15.65;69.14;101044.59;116451;1193;21918;-77
2021/08/25 06:15:41;;;;;;;9.80;6.70;;;;;;;15.98;67.84;101047.01;116389;1193;21886;-77
2021/08/25 06:18:10;;;;;;;11.00;7.80;;;;;;;16.36;67.09;101044.90;116603;1190;21902;-77
2021/08/25 06:20:39;;;;;;;10.40;9.20;;;;;;;16.75;66.03;101043.41;116647;1189;21904;-78
2021/08/25 06:23:08;;;;;;;12.10;8.10;;;;;;;17.18;64.96;101040.73;116686;1190;21916;-78
2021/08/25 06:25:40;;;;;;;16.20;8.90;;;;;;;17.57;62.90;101044.89;116653;1187;23332;-77
2021/08/25 06:28:10;;;;;;;9.00;7.30;;;;;;;17.80;61.26;101042.42;116661;1190;23514;-78
2021/08/25 06:30:43;;;;;;;14.60;7.80;;;;;;;18.10;61.12;101041.35;116649;1190;21885;-78
2021/08/25 06:33:12;;;;;;;11.00;7.90;;;;;;;18.36;59.34;101040.30;116741;1190;21881;-78
2021/08/25 06:35:42;;;;;;;15.20;6.80;;;;;;;18.48;58.32;101041.52;116709;1190;21893;-78
2021/08/25 06:38:11;;;;;;;11.10;6.90;;;;;;;18.77;58.70;101039.20;116630;1190;21943;-78
2021/08/25 06:40:40;;;;;;;10.50;7.40;;;;;;;19.10;57.71;101039.71;116739;1184;21901;-78
2021/08/25 06:43:09;;;;;;;9.00;6.70;;;;;;;19.37;56.78;101040.38;116741;1190;22861;-79
2021/08/25 06:45:39;;;;;;;8.80;6.30;;;;;;;19.55;55.54;101036.88;116508;1190;21904;-79
2021/08/25 06:48:08;;;;;;;8.70;6.40;;;;;;;19.77;55.42;101033.40;116444;1193;21845;-79
2021/08/25 06:50:37;;;;;;;10.10;6.30;;;;;;;20.08;54.74;101033.41;116433;1193;21902;-78
2021/08/25 06:53:06;;;;;;;9.40;6.20;;;;;;;20.36;53.31;101028.91;116532;1191;22984;-78
2021/08/25 06:55:39;;;;;;;12.40;6.90;;;;;;;20.60;52.70;101022.39;116465;1193;21900;-78
2021/08/25 06:58:08;;;;;;;8.90;5.60;;;;;;;20.85;52.10;101022.62;116503;1193;21940;-78
2021/08/25 07:00:37;;;;;;;7.90;6.10;;;;;;;21.10;51.43;101019.42;116095;1194;22006;-78
2021/08/25 07:03:07;;;;;;;10.50;6.80;;;;;;;21.34;50.44;101011.92;116171;1191;21912;-78
2021/08/25 07:05:36;;;;;;;8.40;5.80;;;;;;;21.60;49.86;101011.73;116171;1195;23463;-78
2021/08/25 07:08:05;;;;;;;8.90;6.40;;;;;;;21.87;49.33;101011.09;116292;1192;23501;-78
2021/08/25 07:10:34;;;;;;;9.30;6.60;;;;;;;22.07;48.22;101011.48;116400;1192;23476;-78
2021/08/25 07:13:04;;;;;;;8.50;7.60;;;;;;;22.22;47.34;101011.43;116354;1195;21889;-78
2021/08/25 07:15:33;;;;;;;6.40;5.20;;;;;;;22.33;46.26;101007.89;116196;1194;21921;-79
2021/08/25 07:18:03;;;;;;;7.90;4.60;;;;;;;22.37;45.56;101004.81;116372;1189;21895;-78
2021/08/25 07:20:46;;;;;;;7.70;5.90;;;;;;;22.47;45.59;101001.09;116516;1189;22095;-78
2021/08/25 07:23:15;;;;;;;7.00;5.10;;;;;;;22.63;45.07;100996.91;116659;1189;22631;-80
2021/08/25 07:25:44;;;;;;;10.70;5.40;;;;;;;22.79;44.63;100996.55;116531;1187;22936;-74
2021/08/25 07:28:13;;;;;;;11.70;5.10;;;;;;;22.81;43.70;100996.27;116548;1190;21902;-75
2021/08/25 07:30:42;;;;;;;9.50;5.90;;;;;;;22.89;44.09;100995.77;116601;1190;22495;-74
2021/08/25 07:33:12;;;;;;;7.50;5.80;;;;;;;23.01;43.58;100993.53;116591;1190;21889;-79
2021/08/25 07:35:46;;;;;;;13.10;5.80;;;;;;;23.14;42.94;100990.80;116593;1190;21900;-80
2021/08/25 07:38:17;;;;;;;11.70;6.30;;;;;;;23.25;42.57;100988.31;116702;1190;23520;-79
2021/08/25 07:40:46;;;;;;;;;;;;;;;23.23;41.91;100989.56;116702;1190;23538;-78
2021/08/25 07:43:15;;;;;;;8.40;5.30;;;;;;;23.09;42.23;100983.75;116598;1186;21891;-79
2021/08/25 07:45:44;;;;;;;6.30;4.00;;;;;;;23.18;42.89;100982.27;116644;1186;22929;-79
2021/08/25 07:48:13;;;;;;;6.00;4.20;;;;;;;23.33;42.24;100984.48;116629;1191;21883;-78
2021/08/25 07:50:44;;;;;;;9.10;5.80;;;;;;;23.44;41.43;100980.63;116600;1190;23548;-79
2021/08/25 07:53:17;;;;;;;7.50;5.80;;;;;;;23.32;40.55;100978.64;116523;1190;21874;-79
2021/08/25 07:55:46;;;;;;;6.80;5.00;;;;;;;23.09;40.66;100973.68;116529;1193;21899;-78
2021/08/25 07:58:15;;;;;;;7.80;5.40;;;;;;;23.10;42.11;100967.69;116626;1192;21891;-80
2021/08/25 08:00:45;;;;;;;6.70;5.10;;;;;;;23.28;42.05;100966.52;116728;1190;21897;-80
2021/08/25 08:03:15;;;;;;;7.20;4.90;;;;;;;23.41;41.11;100958.95;116683;1190;21910;-79
2021/08/25 08:05:46;;;;;;;9.10;4.90;;;;;;;23.53;40.38;100953.58;116518;1191;21904;-79
2021/08/25 08:08:17;;;;;;;6.30;4.80;;;;;;;23.58;39.93;100948.16;116071;1195;21986;-79
2021/08/25 08:10:46;;;;;;;8.40;4.30;;;;;;;23.55;39.67;100943.46;116415;1192;21882;-80
2021/08/25 08:13:16;;;;;;;5.30;3.80;;;;;;;23.66;39.72;100941.17;116565;1192;22619;-79
2021/08/25 08:15:46;;;;;;;7.20;4.40;;;;;;;23.83;38.83;100941.39;116466;1189;21886;-81
2021/08/25 08:18:20;;;;;;;6.20;3.80;;;;;;;24.03;37.78;100941.16;116509;1193;23564;-80
2021/08/25 08:20:50;;;;;;;6.10;4.00;;;;;;;24.21;37.34;100940.79;116376;1195;23254;-80
2021/08/25 08:23:19;;;;;;;5.00;3.60;;;;;;;24.40;36.89;100937.55;116443;1192;21910;-80
2021/08/25 08:25:48;;;;;;;6.40;4.20;;;;;;;24.65;36.46;100932.77;116331;1189;22075;-80
2021/08/25 08:28:21;;;;;;;5.10;3.90;;;;;;;24.82;35.51;100931.30;116626;1187;21890;-79
2021/08/25 08:30:54;;;;;;;5.70;4.30;;;;;;;24.82;34.28;100928.98;116756;1191;21901;-79
2021/08/25 08:33:23;;;;;;;6.10;4.00;;;;;;;24.72;34.61;100927.58;116574;1191;24146;-79
2021/08/25 08:35:52;;;;;;;8.30;4.10;;;;;;;24.60;34.44;100926.86;116532;1192;22917;-79
2021/08/25 08:38:21;;;;;;;10.20;4.90;;;;;;;24.23;34.03;100927.70;116577;1190;22200;-79
2021/08/25 08:40:50;;;;;;;5.10;3.90;;;;;;;23.79;34.74;100923.67;116699;1192;21898;-80
2021/08/25 08:43:19;;;;;;;9.20;6.40;;;;;;;23.64;36.19;100918.29;116722;1189;24139;-80
2021/08/25 08:45:48;;;;;;;5.10;4.30;;;;;;;23.79;37.00;100914.00;116629;1191;21892;-78
2021/08/25 08:48:18;;;;;;;4.80;3.90;;;;;;;24.02;36.96;100912.70;116532;1190;21971;-78
2021/08/25 08:50:47;;;;;;;6.10;4.60;;;;;;;24.27;36.30;100907.67;116225;1195;21892;-79
2021/08/25 08:53:17;;;;;;;7.00;4.10;;;;;;;24.46;35.14;100899.94;116280;1195;24160;-79
2021/08/25 08:55:46;;;;;;;8.70;4.50;;;;;;;24.66;34.86;100897.19;116454;1195;21886;-80
2021/08/25 08:58:15;;;;;;;6.80;4.10;;;;;;;24.78;33.84;100894.12;116166;1192;22044;-79
2021/08/25 09:00:45;;;;;;;5.80;3.80;;;;;;;24.69;33.53;100887.23;116406;1195;24250;-79
2021/08/25 09:03:22;;;;;;;4.70;4.00;;;;;;;24.75;33.62;100880.88;116008;1195;21890;-79
2021/08/25 09:06:01;;;;;;;6.00;4.70;;;;;;;24.82;33.08;100875.85;115873;1198;23456;-79
2021/08/25 09:08:33;;;;;;;5.00;3.50;;;;;;;24.82;32.74;100875.19;115794;1198;22919;-79
2021/08/25 09:11:12;;;;;;;5.10;4.20;;;;;;;24.90;33.18;100873.41;116082;1198;22123;-79
2021/08/25 09:13:49;;;;;;;5.10;4.10;;;;;;;25.18;32.85;100865.46;116156;1192;21910;-79
2021/08/25 09:16:28;;;;;;;5.00;4.00;;;;;;;25.44;31.48;100860.79;116164;1195;21902;-79
2021/08/25 09:19:05;;;;;;;5.00;3.70;;;;;;;25.57;30.47;100860.33;116147;1195;21903;-79
2021/08/25 09:21:42;;;;;;;6.90;4.30;;;;;;;25.28;30.08;100860.98;116212;1192;21897;-79
2021/08/25 09:24:14;;;;;;;6.30;4.40;;;;;;;25.03;31.24;100861.42;116508;1188;21894;-80
2021/08/25 09:27:16;;;;;;;4.60;3.90;;;;;;;24.76;31.01;100857.08;116529;1192;23497;-79
2021/08/25 09:29:57;;;;;;;5.60;4.20;;;;;;;24.33;31.92;100846.33;116628;1187;21904;-79
2021/08/25 09:32:32;;;;;;;5.10;3.90;;;;;;;24.39;33.32;100843.20;116805;1187;22924;-78
2021/08/25 09:35:02;;;;;;;4.10;3.50;;;;;;;24.70;33.12;100842.84;116562;1191;21882;-79
2021/08/25 09:37:33;;;;;;;5.70;4.20;;;;;;;24.86;32.18;100842.17;116523;1191;22854;-79
2021/08/25 09:40:14;;;;;;;5.30;4.00;;;;;;;24.80;31.71;100840.64;116695;1189;21946;-80
2021/08/25 09:42:46;;;;;;;4.60;3.90;;;;;;;24.31;31.22;100839.66;116652;1189;22852;-78
2021/08/25 09:45:18;;;;;;;5.00;4.10;;;;;;;23.74;32.21;100837.95;116524;1193;21902;-80
2021/08/25 09:47:52;;;;;;;8.10;4.90;;;;;;;23.57;34.10;100828.37;116487;1192;21927;-79
2021/08/25 09:50:27;;;;;;;6.70;4.00;;;;;;;23.87;34.91;100819.84;116659;1190;23426;-79
2021/08/25 09:52:56;;;;;;;13.60;5.10;;;;;;;24.23;33.57;100821.23;116418;1190;23267;-79
2021/08/25 09:55:34;;;;;;;5.60;4.00;;;;;;;24.50;33.11;100812.84;116409;1195;21898;-79
2021/08/25 09:58:13;;;;;;;5.60;3.80;;;;;;;24.67;32.67;100809.45;116444;1192;21894;-79
2021/08/25 10:00:42;;;;;;;4.90;3.70;;;;;;;24.59;32.00;100811.03;116341;1192;22798;-79
2021/08/25 10:03:12;;;;;;;6.10;4.10;;;;;;;24.37;32.24;100804.06;116378;1192;22671;-79
2021/08/25 10:05:46;;;;;;;8.20;4.40;;;;;;;24.03;32.48;100801.90;116152;1196;22869;-79
2021/08/25 10:08:17;;;;;;;7.10;4.00;;;;;;;23.67;32.68;100797.20;116450;1190;22285;-80
2021/08/25 10:10:46;;;;;;;6.70;4.30;;;;;;;23.59;34.20;100792.20;116433;1192;21910;-79
2021/08/25 10:13:15;;;;;;;6.40;4.80;;;;;;;23.77;34.36;100786.92;116460;1193;22045;-79
2021/08/25 10:15:45;;;;;;;4.20;3.60;;;;;;;24.01;34.12;100782.35;116627;1186;21868;-79
2021/08/25 10:18:41;;;;;;;6.30;4.50;;;;;;;24.19;33.02;100774.63;116629;1192;23559;-80
2021/08/25 10:21:40;;;;;;;5.10;4.10;;;;;;;24.21;32.88;100770.98;116614;1192;21901;-79
2021/08/25 10:24:10;;;;;;;5.30;4.30;;;;;;;24.29;32.59;100766.72;116754;1190;21924;-79
2021/08/25 10:27:06;;;;;;;6.30;4.70;;;;;;;24.35;32.90;100760.33;116777;1190;22720;-79
2021/08/25 10:30:01;;;;;;;4.30;3.80;;;;;;;24.69;33.02;100754.85;116811;1190;21919;-78
2021/08/25 10:32:38;;;;;;;5.70;4.30;;;;;;;25.09;32.38;100748.90;116736;1190;21894;-79
2021/08/25 10:35:32;;;;;;;6.70;4.80;;;;;;;25.43;31.19;100745.77;116571;1191;21885;-78
2021/08/25 10:38:30;;;;;;;4.10;3.30;;;;;;;25.61;30.42;100736.89;116530;1190;21903;-79
2021/08/25 10:41:21;;;;;;;5.20;4.00;;;;;;;25.74;30.16;100731.31;116517;1192;21906;-79
2021/08/25 10:43:50;;;;;;;4.80;3.90;;;;;;;25.81;29.85;100726.08;116526;1192;21883;-79
2021/08/25 10:46:19;;;;;;;6.00;4.70;;;;;;;25.76;29.97;100719.85;116503;1192;23535;-81
2021/08/25 10:48:56;;;;;;;7.20;5.00;;;;;;;25.37;29.19;100715.20;116152;1195;21905;-80
2021/08/25 10:51:37;;;;;;;;;;;;;;;24.97;30.21;100707.73;116094;1198;23586;-80
2021/08/25 10:54:14;;;;;;;4.60;3.60;;;;;;;24.44;30.58;100701.70;116128;1192;21908;-80
2021/08/25 10:56:46;;;;;;;6.30;3.90;;;;;;;24.14;31.91;100697.69;116123;1198;23459;-80
2021/08/25 10:59:21;;;;;;;7.40;4.70;;;;;;;24.07;32.58;100690.45;115426;1198;21957;-79
2021/08/25 11:01:55;;;;;;;6.60;3.80;;;;;;;23.97;32.31;100686.23;115699;1200;21920;-81
2021/08/25 11:04:25;;;;;;;5.00;4.00;;;;;;;23.82;32.79;100680.02;115880;1200;21938;-80
2021/08/25 11:06:59;;;;;;;7.30;4.70;;;;;;;23.62;33.15;100679.58;116175;1195;23558;-80
2021/08/25 11:09:33;;;;;;;4.90;4.20;;;;;;;23.36;33.28;100671.81;116198;1195;22059;-81
2021/08/25 11:12:06;;;;;;;7.60;4.50;;;;;;;23.11;33.53;100668.13;116335;1198;22031;-79
2021/08/25 11:15:17;;;;;;;7.90;5.10;;;;;;;22.86;33.91;100663.56;116321;1198;22938;-80
2021/08/25 11:18:07;;;;;;;5.70;4.50;;;;;;;22.59;34.28;100657.77;116915;1194;21881;-81
2021/08/25 11:20:36;;;;;;;6.40;4.00;;;;;;;22.30;34.50;100653.69;117144;1189;21895;-80
2021/08/25 11:23:05;;;;;;;5.10;4.10;;;;;;;22.08;34.99;100649.42;116901;1189;21927;-79
2021/08/25 11:25:34;;;;;;;6.20;4.70;;;;;;;21.91;35.62;100641.92;116763;1190;22249;-80
2021/08/25 11:28:03;;;;;;;6.70;4.60;;;;;;;21.80;36.34;100637.27;116639;1195;21888;-80
2021/08/25 11:30:35;;;;;;;6.30;4.80;;;;;;;21.73;36.61;100634.02;116561;1192;23591;-80
2021/08/25 11:33:09;;;;;;;8.10;4.90;;;;;;;21.62;36.46;100629.13;116561;1193;21889;-80